PWSweather.com
Personal Weather Stations
Station Observations
PWSTHORN2
Thornton, Nh Usa, Thornton, NH 03285

Thornton, Nh UsaThornton, NH 03285

Lat: 43.8870699, Lon: -71.6632763

Elevation: 640

Station Type: Ambient WS 2080

Latest ConditionsUpdated 6:55:02 PM EDT Wednesday, Aug 15, 2018
Currently Today's Max Today's Min Today's Average
Temperature 80.1°F26.7°C 88.2°F31.2°C 64.8°F18.2°C 75.4°F24.1°C
Dew Point 79.8°F26.6°C 88.0°F31.1°C 64.5°F18.1°C 75.2°F24.0°C
Winds 0.7 mph N1.1 kmh N 9.2 mph -14.8 kmh - - 1.7 mph 2.7 kmh
Wind Gusts 2.2 mph3.5 kmh 15.2 mph24.5 kmh - -
Humidity 99% 99% 99% 99%
Pressure 29.18 in988.1 mb 29.18 in988.1 mb 29.14 in986.8 mb -
Hour Temp Dew Point Humidity Winds Wind Gusts Pressure Precip Precip Rate Daily Precip Total
06:55 PM 80.1°F26.7°C 79.8°F26.6°C 99% 0.7 mph N1.1 kmh N 2.2 mph3.5 kmh 29.18 in988.1 mb 0.00 in0.0 mm 0.00 in0.0 mm 0.00 in0.0 mm
06:50 PM 80.1°F26.7°C 79.8°F26.6°C 99% Calm Calm 1.6 mph2.6 kmh 29.18 in988.1 mb 0.00 in0.0 mm 0.00 in0.0 mm 0.00 in0.0 mm
06:45 PM 80.1°F26.7°C 79.8°F26.6°C 99% 0.7 mph N1.1 kmh N 1.6 mph2.6 kmh 29.17 in987.8 mb 0.00 in0.0 mm 0.00 in0.0 mm 0.00 in0.0 mm
06:40 PM 80.2°F26.8°C 80.0°F26.7°C 99% Calm Calm 3.1 mph5.0 kmh 29.16 in987.5 mb 0.00 in0.0 mm 0.00 in0.0 mm 0.00 in0.0 mm
06:35 PM 81.1°F27.3°C 80.9°F27.2°C 99% Calm Calm 3.1 mph5.0 kmh 29.17 in987.8 mb 0.00 in0.0 mm 0.00 in0.0 mm 0.00 in0.0 mm
06:30 PM 82.4°F28.0°C 82.2°F27.9°C 99% 0.7 mph N1.1 kmh N 3.1 mph5.0 kmh 29.17 in987.8 mb 0.00 in0.0 mm 0.00 in0.0 mm 0.00 in0.0 mm
06:25 PM 83.8°F28.8°C 83.6°F28.7°C 99% 0.7 mph N1.1 kmh N 2.2 mph3.5 kmh 29.16 in987.5 mb 0.00 in0.0 mm 0.00 in0.0 mm 0.00 in0.0 mm
06:20 PM 84.4°F29.1°C 84.2°F29.0°C 99% Calm Calm 3.8 mph6.1 kmh 29.16 in987.5 mb 0.00 in0.0 mm 0.00 in0.0 mm 0.00 in0.0 mm
06:15 PM 84.6°F29.2°C 84.3°F29.1°C 99% 0.7 mph N1.1 kmh N 3.8 mph6.1 kmh 29.17 in987.8 mb 0.00 in0.0 mm 0.00 in0.0 mm 0.00 in0.0 mm
06:10 PM 84.7°F29.3°C 84.5°F29.2°C 99% 1.6 mph N2.6 kmh N 3.8 mph6.1 kmh 29.16 in987.5 mb 0.00 in0.0 mm 0.00 in0.0 mm 0.00 in0.0 mm
06:05 PM 84.9°F29.4°C 84.7°F29.3°C 99% 1.6 mph N2.6 kmh N 4.5 mph7.2 kmh 29.17 in987.8 mb 0.00 in0.0 mm 0.00 in0.0 mm 0.00 in0.0 mm
06:00 PM 84.9°F29.4°C 84.7°F29.3°C 99% 2.2 mph N3.5 kmh N 6.0 mph9.7 kmh 29.17 in987.8 mb 0.00 in0.0 mm 0.00 in0.0 mm 0.00 in0.0 mm
05:55 PM 85.5°F29.7°C 85.2°F29.6°C 99% 3.1 mph N5.0 kmh N 6.0 mph9.7 kmh 29.17 in987.8 mb 0.00 in0.0 mm 0.00 in0.0 mm 0.00 in0.0 mm
05:50 PM 86.4°F30.2°C 86.1°F30.1°C 99% 1.6 mph N2.6 kmh N 4.5 mph7.2 kmh 29.17 in987.8 mb 0.00 in0.0 mm 0.00 in0.0 mm 0.00 in0.0 mm
05:45 PM 86.7°F30.4°C 86.5°F30.3°C 99% 1.6 mph N2.6 kmh N 6.0 mph9.7 kmh 29.17 in987.8 mb 0.00 in0.0 mm 0.00 in0.0 mm 0.00 in0.0 mm
05:40 PM 86.7°F30.4°C 86.5°F30.3°C 99% 1.6 mph N2.6 kmh N 6.0 mph9.7 kmh 29.16 in987.5 mb 0.00 in0.0 mm 0.00 in0.0 mm 0.00 in0.0 mm
05:35 PM 87.8°F31.0°C 87.6°F30.9°C 99% 2.2 mph N3.5 kmh N 4.5 mph7.2 kmh 29.16 in987.5 mb 0.00 in0.0 mm 0.00 in0.0 mm 0.00 in0.0 mm
05:30 PM 87.3°F30.7°C 87.0°F30.6°C 99% 0.7 mph NNW1.1 kmh NNW 6.9 mph11.1 kmh 29.16 in987.5 mb 0.00 in0.0 mm 0.00 in0.0 mm 0.00 in0.0 mm
05:25 PM 86.7°F30.4°C 86.5°F30.3°C 99% 1.6 mph WSW2.6 kmh WSW 6.9 mph11.1 kmh 29.16 in987.5 mb 0.00 in0.0 mm 0.00 in0.0 mm 0.00 in0.0 mm
05:20 PM 86.2°F30.1°C 86.0°F30.0°C 99% 5.4 mph SW8.7 kmh SW 6.9 mph11.1 kmh 29.16 in987.5 mb 0.00 in0.0 mm 0.00 in0.0 mm 0.00 in0.0 mm
05:15 PM 85.8°F29.9°C 85.6°F29.8°C 99% 0.7 mph SW1.1 kmh SW 6.0 mph9.7 kmh 29.15 in987.1 mb 0.00 in0.0 mm 0.00 in0.0 mm 0.00 in0.0 mm
05:10 PM 86.0°F30.0°C 85.8°F29.9°C 99% 2.2 mph SW3.5 kmh SW 6.0 mph9.7 kmh 29.16 in987.5 mb 0.00 in0.0 mm 0.00 in0.0 mm 0.00 in0.0 mm
05:05 PM 86.2°F30.1°C 86.0°F30.0°C 99% 2.2 mph SSW3.5 kmh SSW 6.0 mph9.7 kmh 29.16 in987.5 mb 0.00 in0.0 mm 0.00 in0.0 mm 0.00 in0.0 mm
05:00 PM 86.2°F30.1°C 86.0°F30.0°C 99% 3.1 mph S5.0 kmh S 6.9 mph11.1 kmh 29.15 in987.1 mb 0.00 in0.0 mm 0.00 in0.0 mm 0.00 in0.0 mm
04:55 PM 86.2°F30.1°C 86.0°F30.0°C 99% 3.8 mph S6.1 kmh S 7.6 mph12.2 kmh 29.16 in987.5 mb 0.00 in0.0 mm 0.00 in0.0 mm 0.00 in0.0 mm
04:50 PM 86.2°F30.1°C 86.0°F30.0°C 99% 4.5 mph ESE7.2 kmh ESE 8.3 mph13.4 kmh 29.16 in987.5 mb 0.00 in0.0 mm 0.00 in0.0 mm 0.00 in0.0 mm
04:45 PM 86.0°F30.0°C 85.8°F29.9°C 99% 3.8 mph E6.1 kmh E 8.3 mph13.4 kmh 29.16 in987.5 mb 0.00 in0.0 mm 0.00 in0.0 mm 0.00 in0.0 mm
04:40 PM 85.6°F29.8°C 85.4°F29.7°C 99% 0.7 mph E1.1 kmh E 7.6 mph12.2 kmh 29.16 in987.5 mb 0.00 in0.0 mm 0.00 in0.0 mm 0.00 in0.0 mm
04:35 PM 85.5°F29.7°C 85.2°F29.6°C 99% 3.1 mph E5.0 kmh E 6.9 mph11.1 kmh 29.16 in987.5 mb 0.00 in0.0 mm 0.00 in0.0 mm 0.00 in0.0 mm
04:30 PM 84.6°F29.2°C 84.3°F29.1°C 99% 4.5 mph E7.2 kmh E 8.3 mph13.4 kmh 29.16 in987.5 mb 0.00 in0.0 mm 0.00 in0.0 mm 0.00 in0.0 mm
04:25 PM 84.6°F29.2°C 84.3°F29.1°C 99% 2.2 mph NE3.5 kmh NE 8.3 mph13.4 kmh 29.16 in987.5 mb 0.00 in0.0 mm 0.00 in0.0 mm 0.00 in0.0 mm
04:20 PM 85.6°F29.8°C 85.4°F29.7°C 99% 3.1 mph N5.0 kmh N 7.6 mph12.2 kmh 29.15 in987.1 mb 0.00 in0.0 mm 0.00 in0.0 mm 0.00 in0.0 mm
04:15 PM 87.6°F30.9°C 87.4°F30.8°C 99% 3.8 mph N6.1 kmh N 6.9 mph11.1 kmh 29.15 in987.1 mb 0.00 in0.0 mm 0.00 in0.0 mm 0.00 in0.0 mm
04:10 PM 88.2°F31.2°C 88.0°F31.1°C 99% 0.7 mph N1.1 kmh N 6.9 mph11.1 kmh 29.15 in987.1 mb 0.00 in0.0 mm 0.00 in0.0 mm 0.00 in0.0 mm
04:05 PM 87.8°F31.0°C 87.6°F30.9°C 99% 3.1 mph N5.0 kmh N 8.3 mph13.4 kmh 29.15 in987.1 mb 0.00 in0.0 mm 0.00 in0.0 mm 0.00 in0.0 mm
04:00 PM 86.2°F30.1°C 86.0°F30.0°C 99% 3.1 mph N5.0 kmh N 11.4 mph18.3 kmh 29.15 in987.1 mb 0.00 in0.0 mm 0.00 in0.0 mm 0.00 in0.0 mm
03:55 PM 85.1°F29.5°C 84.9°F29.4°C 99% 5.4 mph N8.7 kmh N 11.4 mph18.3 kmh 29.15 in987.1 mb 0.00 in0.0 mm 0.00 in0.0 mm 0.00 in0.0 mm
03:50 PM 85.3°F29.6°C 85.1°F29.5°C 99% 2.2 mph N3.5 kmh N 9.2 mph14.8 kmh 29.16 in987.5 mb 0.00 in0.0 mm 0.00 in0.0 mm 0.00 in0.0 mm
03:45 PM 85.5°F29.7°C 85.2°F29.6°C 99% 2.2 mph NNW3.5 kmh NNW 7.6 mph12.2 kmh 29.15 in987.1 mb 0.00 in0.0 mm 0.00 in0.0 mm 0.00 in0.0 mm
03:40 PM 85.1°F29.5°C 84.9°F29.4°C 99% 2.2 mph WNW3.5 kmh WNW 7.6 mph12.2 kmh 29.15 in987.1 mb 0.00 in0.0 mm 0.00 in0.0 mm 0.00 in0.0 mm
03:35 PM 84.7°F29.3°C 84.5°F29.2°C 99% 3.1 mph W5.0 kmh W 11.4 mph18.3 kmh 29.14 in986.8 mb 0.00 in0.0 mm 0.00 in0.0 mm 0.00 in0.0 mm
03:30 PM 85.5°F29.7°C 85.2°F29.6°C 99% 3.1 mph SW5.0 kmh SW 11.4 mph18.3 kmh 29.15 in987.1 mb 0.00 in0.0 mm 0.00 in0.0 mm 0.00 in0.0 mm
03:25 PM 86.7°F30.4°C 86.5°F30.3°C 99% 6.9 mph S11.1 kmh S 11.4 mph18.3 kmh 29.15 in987.1 mb 0.00 in0.0 mm 0.00 in0.0 mm 0.00 in0.0 mm
03:20 PM 87.8°F31.0°C 87.6°F30.9°C 99% 4.5 mph S7.2 kmh S 6.9 mph11.1 kmh 29.16 in987.5 mb 0.00 in0.0 mm 0.00 in0.0 mm 0.00 in0.0 mm
03:15 PM 86.7°F30.4°C 86.5°F30.3°C 99% 2.2 mph S3.5 kmh S 13.0 mph20.9 kmh 29.15 in987.1 mb 0.00 in0.0 mm 0.00 in0.0 mm 0.00 in0.0 mm
03:10 PM 85.6°F29.8°C 85.4°F29.7°C 99% 3.8 mph S6.1 kmh S 13.0 mph20.9 kmh 29.16 in987.5 mb 0.00 in0.0 mm 0.00 in0.0 mm 0.00 in0.0 mm
03:05 PM 85.6°F29.8°C 85.4°F29.7°C 99% 9.2 mph SSW14.8 kmh SSW 11.4 mph18.3 kmh 29.15 in987.1 mb 0.00 in0.0 mm 0.00 in0.0 mm 0.00 in0.0 mm
03:00 PM 85.5°F29.7°C 85.2°F29.6°C 99% 4.5 mph SW7.2 kmh SW 11.4 mph18.3 kmh 29.16 in987.5 mb 0.00 in0.0 mm 0.00 in0.0 mm 0.00 in0.0 mm
02:55 PM 85.3°F29.6°C 85.1°F29.5°C 99% 6.0 mph SW9.7 kmh SW 11.4 mph18.3 kmh 29.16 in987.5 mb 0.00 in0.0 mm 0.00 in0.0 mm 0.00 in0.0 mm
02:50 PM 85.1°F29.5°C 84.9°F29.4°C 99% 4.5 mph SW7.2 kmh SW 8.3 mph13.4 kmh 29.16 in987.5 mb 0.00 in0.0 mm 0.00 in0.0 mm 0.00 in0.0 mm
02:45 PM 85.3°F29.6°C 85.1°F29.5°C 99% 3.1 mph WSW5.0 kmh WSW 9.2 mph14.8 kmh 29.16 in987.5 mb 0.00 in0.0 mm 0.00 in0.0 mm 0.00 in0.0 mm
02:40 PM 85.5°F29.7°C 85.2°F29.6°C 99% 4.5 mph W7.2 kmh W 10.7 mph17.2 kmh 29.16 in987.5 mb 0.00 in0.0 mm 0.00 in0.0 mm 0.00 in0.0 mm
02:35 PM 84.7°F29.3°C 84.5°F29.2°C 99% 3.1 mph W5.0 kmh W 10.7 mph17.2 kmh 29.16 in987.5 mb 0.00 in0.0 mm 0.00 in0.0 mm 0.00 in0.0 mm
02:30 PM 85.1°F29.5°C 84.9°F29.4°C 99% 6.0 mph SW9.7 kmh SW 10.7 mph17.2 kmh 29.16 in987.5 mb 0.00 in0.0 mm 0.00 in0.0 mm 0.00 in0.0 mm
02:25 PM 84.9°F29.4°C 84.7°F29.3°C 99% 3.1 mph S5.0 kmh S 11.4 mph18.3 kmh 29.15 in987.1 mb 0.00 in0.0 mm 0.00 in0.0 mm 0.00 in0.0 mm
02:20 PM 84.2°F29.0°C 84.0°F28.9°C 99% 5.4 mph S8.7 kmh S 15.2 mph24.5 kmh 29.16 in987.5 mb 0.00 in0.0 mm 0.00 in0.0 mm 0.00 in0.0 mm
02:15 PM 84.4°F29.1°C 84.2°F29.0°C 99% 3.8 mph SSE6.1 kmh SSE 15.2 mph24.5 kmh 29.16 in987.5 mb 0.00 in0.0 mm 0.00 in0.0 mm 0.00 in0.0 mm
02:10 PM 84.6°F29.2°C 84.3°F29.1°C 99% 6.0 mph SSE9.7 kmh SSE 15.2 mph24.5 kmh 29.16 in987.5 mb 0.00 in0.0 mm 0.00 in0.0 mm 0.00 in0.0 mm
02:05 PM 84.4°F29.1°C 84.2°F29.0°C 99% 4.5 mph S7.2 kmh S 15.2 mph24.5 kmh 29.16 in987.5 mb 0.00 in0.0 mm 0.00 in0.0 mm 0.00 in0.0 mm
02:00 PM 85.3°F29.6°C 85.1°F29.5°C 99% 6.9 mph S11.1 kmh S 11.4 mph18.3 kmh 29.16 in987.5 mb 0.00 in0.0 mm 0.00 in0.0 mm 0.00 in0.0 mm
01:55 PM 84.4°F29.1°C 84.2°F29.0°C 99% 4.5 mph S7.2 kmh S 12.1 mph19.5 kmh 29.16 in987.5 mb 0.00 in0.0 mm 0.00 in0.0 mm 0.00 in0.0 mm
01:50 PM 84.0°F28.9°C 83.8°F28.8°C 99% 6.9 mph S11.1 kmh S 13.6 mph21.9 kmh 29.17 in987.8 mb 0.00 in0.0 mm 0.00 in0.0 mm 0.00 in0.0 mm
01:45 PM 84.4°F29.1°C 84.2°F29.0°C 99% 7.6 mph S12.2 kmh S 13.6 mph21.9 kmh 29.16 in987.5 mb 0.00 in0.0 mm 0.00 in0.0 mm 0.00 in0.0 mm
01:40 PM 83.8°F28.8°C 83.6°F28.7°C 99% 8.3 mph S13.4 kmh S 13.6 mph21.9 kmh 29.16 in987.5 mb 0.00 in0.0 mm 0.00 in0.0 mm 0.00 in0.0 mm
01:35 PM 83.5°F28.6°C 83.3°F28.5°C 99% 5.4 mph SSW8.7 kmh SSW 13.6 mph21.9 kmh 29.16 in987.5 mb 0.00 in0.0 mm 0.00 in0.0 mm 0.00 in0.0 mm
01:30 PM 83.7°F28.7°C 83.4°F28.6°C 99% 8.3 mph WSW13.4 kmh WSW 12.1 mph19.5 kmh 29.16 in987.5 mb 0.00 in0.0 mm 0.00 in0.0 mm 0.00 in0.0 mm
01:25 PM 82.9°F28.3°C 82.7°F28.2°C 99% 4.5 mph W7.2 kmh W 8.3 mph13.4 kmh 29.17 in987.8 mb 0.00 in0.0 mm 0.00 in0.0 mm 0.00 in0.0 mm
01:20 PM 81.9°F27.7°C 81.6°F27.6°C 99% 4.5 mph W7.2 kmh W 7.6 mph12.2 kmh 29.17 in987.8 mb 0.00 in0.0 mm 0.00 in0.0 mm 0.00 in0.0 mm
01:15 PM 81.1°F27.3°C 80.9°F27.2°C 99% 2.2 mph W3.5 kmh W 9.8 mph15.8 kmh 29.17 in987.8 mb 0.00 in0.0 mm 0.00 in0.0 mm 0.00 in0.0 mm
01:10 PM 81.9°F27.7°C 81.6°F27.6°C 99% 3.8 mph WNW6.1 kmh WNW 9.8 mph15.8 kmh 29.16 in987.5 mb 0.00 in0.0 mm 0.00 in0.0 mm 0.00 in0.0 mm
01:05 PM 83.8°F28.8°C 83.6°F28.7°C 99% 3.8 mph NW6.1 kmh NW 12.1 mph19.5 kmh 29.16 in987.5 mb 0.00 in0.0 mm 0.00 in0.0 mm 0.00 in0.0 mm
01:00 PM 83.5°F28.6°C 83.3°F28.5°C 99% 3.1 mph NNE5.0 kmh NNE 12.1 mph19.5 kmh 29.16 in987.5 mb 0.00 in0.0 mm 0.00 in0.0 mm 0.00 in0.0 mm
12:55 PM 83.1°F28.4°C 82.9°F28.3°C 99% 6.9 mph E11.1 kmh E 9.8 mph15.8 kmh 29.16 in987.5 mb 0.00 in0.0 mm 0.00 in0.0 mm 0.00 in0.0 mm
12:50 PM 83.7°F28.7°C 83.4°F28.6°C 99% 4.5 mph E7.2 kmh E 9.2 mph14.8 kmh 29.16 in987.5 mb 0.00 in0.0 mm 0.00 in0.0 mm 0.00 in0.0 mm
12:45 PM 84.2°F29.0°C 84.0°F28.9°C 99% 3.8 mph E6.1 kmh E 9.8 mph15.8 kmh 29.16 in987.5 mb 0.00 in0.0 mm 0.00 in0.0 mm 0.00 in0.0 mm
12:40 PM 83.3°F28.5°C 83.1°F28.4°C 99% 3.1 mph E5.0 kmh E 12.1 mph19.5 kmh 29.17 in987.8 mb 0.00 in0.0 mm 0.00 in0.0 mm 0.00 in0.0 mm
12:35 PM 83.3°F28.5°C 83.1°F28.4°C 99% 6.0 mph E9.7 kmh E 12.1 mph19.5 kmh 29.17 in987.8 mb 0.00 in0.0 mm 0.00 in0.0 mm 0.00 in0.0 mm
12:30 PM 83.1°F28.4°C 82.9°F28.3°C 99% 3.1 mph E5.0 kmh E 10.7 mph17.2 kmh 29.16 in987.5 mb 0.00 in0.0 mm 0.00 in0.0 mm 0.00 in0.0 mm
12:25 PM 82.8°F28.2°C 82.5°F28.1°C 99% 3.8 mph SE6.1 kmh SE 10.7 mph17.2 kmh 29.17 in987.8 mb 0.00 in0.0 mm 0.00 in0.0 mm 0.00 in0.0 mm
12:20 PM 81.5°F27.5°C 81.3°F27.4°C 99% 3.1 mph SE5.0 kmh SE 13.0 mph20.9 kmh 29.16 in987.5 mb 0.00 in0.0 mm 0.00 in0.0 mm 0.00 in0.0 mm
12:15 PM 81.1°F27.3°C 80.9°F27.2°C 99% 4.5 mph SE7.2 kmh SE 13.0 mph20.9 kmh 29.17 in987.8 mb 0.00 in0.0 mm 0.00 in0.0 mm 0.00 in0.0 mm
12:10 PM 81.9°F27.7°C 81.6°F27.6°C 99% 4.5 mph SE7.2 kmh SE 11.4 mph18.3 kmh 29.17 in987.8 mb 0.00 in0.0 mm 0.00 in0.0 mm 0.00 in0.0 mm
12:05 PM 81.1°F27.3°C 80.9°F27.2°C 99% 4.5 mph E7.2 kmh E 11.4 mph18.3 kmh 29.17 in987.8 mb 0.00 in0.0 mm 0.00 in0.0 mm 0.00 in0.0 mm
12:00 PM 81.3°F27.4°C 81.1°F27.3°C 99% 6.9 mph E11.1 kmh E 8.3 mph13.4 kmh 29.17 in987.8 mb 0.00 in0.0 mm 0.00 in0.0 mm 0.00 in0.0 mm
11:55 AM 81.9°F27.7°C 81.6°F27.6°C 99% 3.8 mph E6.1 kmh E 5.4 mph8.7 kmh 29.17 in987.8 mb 0.00 in0.0 mm 0.00 in0.0 mm 0.00 in0.0 mm
11:50 AM 81.9°F27.7°C 81.6°F27.6°C 99% 2.2 mph E3.5 kmh E 7.6 mph12.2 kmh 29.17 in987.8 mb 0.00 in0.0 mm 0.00 in0.0 mm 0.00 in0.0 mm
11:45 AM 82.2°F27.9°C 82.0°F27.8°C 99% 0.7 mph E1.1 kmh E 7.6 mph12.2 kmh 29.18 in988.1 mb 0.00 in0.0 mm 0.00 in0.0 mm 0.00 in0.0 mm
11:40 AM 81.7°F27.6°C 81.5°F27.5°C 99% 2.2 mph E3.5 kmh E 8.3 mph13.4 kmh 29.18 in988.1 mb 0.00 in0.0 mm 0.00 in0.0 mm 0.00 in0.0 mm
11:35 AM 83.1°F28.4°C 82.9°F28.3°C 99% 3.1 mph E5.0 kmh E 8.3 mph13.4 kmh 29.18 in988.1 mb 0.00 in0.0 mm 0.00 in0.0 mm 0.00 in0.0 mm
11:30 AM 83.3°F28.5°C 83.1°F28.4°C 99% 3.8 mph E6.1 kmh E 6.0 mph9.7 kmh 29.18 in988.1 mb 0.00 in0.0 mm 0.00 in0.0 mm 0.00 in0.0 mm
11:25 AM 82.8°F28.2°C 82.5°F28.1°C 99% 3.1 mph E5.0 kmh E 6.9 mph11.1 kmh 29.17 in987.8 mb 0.00 in0.0 mm 0.00 in0.0 mm 0.00 in0.0 mm
11:20 AM 81.0°F27.2°C 80.7°F27.1°C 99% 1.6 mph E2.6 kmh E 6.9 mph11.1 kmh 29.18 in988.1 mb 0.00 in0.0 mm 0.00 in0.0 mm 0.00 in0.0 mm
11:15 AM 80.6°F27.0°C 80.4°F26.9°C 99% 5.4 mph E8.7 kmh E 6.9 mph11.1 kmh 29.18 in988.1 mb 0.00 in0.0 mm 0.00 in0.0 mm 0.00 in0.0 mm
11:10 AM 80.2°F26.8°C 80.0°F26.7°C 99% 2.2 mph E3.5 kmh E 6.0 mph9.7 kmh 29.18 in988.1 mb 0.00 in0.0 mm 0.00 in0.0 mm 0.00 in0.0 mm
11:05 AM 80.1°F26.7°C 79.8°F26.6°C 99% 1.6 mph E2.6 kmh E 6.0 mph9.7 kmh 29.18 in988.1 mb 0.00 in0.0 mm 0.00 in0.0 mm 0.00 in0.0 mm
11:00 AM 79.9°F26.6°C 79.6°F26.4°C 99% 2.2 mph E3.5 kmh E 4.5 mph7.2 kmh 29.18 in988.1 mb 0.00 in0.0 mm 0.00 in0.0 mm 0.00 in0.0 mm
10:55 AM 79.5°F26.4°C 79.3°F26.3°C 99% 3.1 mph E5.0 kmh E 5.4 mph8.7 kmh 29.18 in988.1 mb 0.00 in0.0 mm 0.00 in0.0 mm 0.00 in0.0 mm
10:50 AM 78.8°F26.0°C 78.6°F25.9°C 99% Calm Calm 5.4 mph8.7 kmh 29.18 in988.1 mb 0.00 in0.0 mm 0.00 in0.0 mm 0.00 in0.0 mm
10:45 AM 78.8°F26.0°C 78.6°F25.9°C 99% 3.8 mph E6.1 kmh E 5.4 mph8.7 kmh 29.18 in988.1 mb 0.00 in0.0 mm 0.00 in0.0 mm 0.00 in0.0 mm
10:40 AM 79.3°F26.3°C 79.1°F26.2°C 99% 2.2 mph E3.5 kmh E 3.8 mph6.1 kmh 29.18 in988.1 mb 0.00 in0.0 mm 0.00 in0.0 mm 0.00 in0.0 mm
10:35 AM 78.8°F26.0°C 78.6°F25.9°C 99% Calm Calm 4.5 mph7.2 kmh 29.17 in987.8 mb 0.00 in0.0 mm 0.00 in0.0 mm 0.00 in0.0 mm
10:30 AM 78.3°F25.7°C 78.0°F25.6°C 99% 0.7 mph E1.1 kmh E 4.5 mph7.2 kmh 29.18 in988.1 mb 0.00 in0.0 mm 0.00 in0.0 mm 0.00 in0.0 mm
10:25 AM 78.8°F26.0°C 78.6°F25.9°C 99% 3.8 mph E6.1 kmh E 4.5 mph7.2 kmh 29.18 in988.1 mb 0.00 in0.0 mm 0.00 in0.0 mm 0.00 in0.0 mm
10:20 AM 78.6°F25.9°C 78.4°F25.8°C 99% 0.7 mph E1.1 kmh E 3.8 mph6.1 kmh 29.18 in988.1 mb 0.00 in0.0 mm 0.00 in0.0 mm 0.00 in0.0 mm
10:15 AM 78.8°F26.0°C 78.6°F25.9°C 99% 0.7 mph E1.1 kmh E 3.8 mph6.1 kmh 29.18 in988.1 mb 0.00 in0.0 mm 0.00 in0.0 mm 0.00 in0.0 mm
10:10 AM 79.3°F26.3°C 79.1°F26.2°C 99% 1.6 mph E2.6 kmh E 3.1 mph5.0 kmh 29.18 in988.1 mb 0.00 in0.0 mm 0.00 in0.0 mm 0.00 in0.0 mm
10:05 AM 80.4°F26.9°C 80.2°F26.8°C 99% Calm Calm 3.8 mph6.1 kmh 29.18 in988.1 mb 0.00 in0.0 mm 0.00 in0.0 mm 0.00 in0.0 mm
10:00 AM 82.0°F27.8°C 81.8°F27.7°C 99% 0.7 mph E1.1 kmh E 3.8 mph6.1 kmh 29.18 in988.1 mb 0.00 in0.0 mm 0.00 in0.0 mm 0.00 in0.0 mm
09:55 AM 81.9°F27.7°C 81.6°F27.6°C 99% 2.2 mph E3.5 kmh E 3.8 mph6.1 kmh 29.18 in988.1 mb 0.00 in0.0 mm 0.00 in0.0 mm 0.00 in0.0 mm
09:50 AM 80.4°F26.9°C 80.2°F26.8°C 99% Calm Calm 3.8 mph6.1 kmh 29.18 in988.1 mb 0.00 in0.0 mm 0.00 in0.0 mm 0.00 in0.0 mm
09:45 AM 78.8°F26.0°C 78.6°F25.9°C 99% 2.2 mph E3.5 kmh E 3.8 mph6.1 kmh 29.18 in988.1 mb 0.00 in0.0 mm 0.00 in0.0 mm 0.00 in0.0 mm
09:40 AM 77.0°F25.0°C 76.8°F24.9°C 99% 1.6 mph E2.6 kmh E 3.1 mph5.0 kmh 29.18 in988.1 mb 0.00 in0.0 mm 0.00 in0.0 mm 0.00 in0.0 mm
09:35 AM 76.5°F24.7°C 76.2°F24.6°C 99% 0.7 mph E1.1 kmh E 3.8 mph6.1 kmh 29.18 in988.1 mb 0.00 in0.0 mm 0.00 in0.0 mm 0.00 in0.0 mm
09:30 AM 77.4°F25.2°C 77.1°F25.1°C 99% Calm Calm 3.8 mph6.1 kmh 29.18 in988.1 mb 0.00 in0.0 mm 0.00 in0.0 mm 0.00 in0.0 mm
09:25 AM 76.5°F24.7°C 76.2°F24.6°C 99% 2.2 mph E3.5 kmh E 4.5 mph7.2 kmh 29.18 in988.1 mb 0.00 in0.0 mm 0.00 in0.0 mm 0.00 in0.0 mm
09:20 AM 75.9°F24.4°C 75.7°F24.3°C 99% Calm Calm 4.5 mph7.2 kmh 29.18 in988.1 mb 0.00 in0.0 mm 0.00 in0.0 mm 0.00 in0.0 mm
09:15 AM 73.8°F23.2°C 73.5°F23.1°C 99% 2.2 mph E3.5 kmh E 3.1 mph5.0 kmh 29.18 in988.1 mb 0.00 in0.0 mm 0.00 in0.0 mm 0.00 in0.0 mm
09:10 AM 73.4°F23.0°C 73.2°F22.9°C 99% 1.6 mph E2.6 kmh E 3.1 mph5.0 kmh 29.18 in988.1 mb 0.00 in0.0 mm 0.00 in0.0 mm 0.00 in0.0 mm
09:05 AM 73.8°F23.2°C 73.5°F23.1°C 99% Calm Calm 3.1 mph5.0 kmh 29.18 in988.1 mb 0.00 in0.0 mm 0.00 in0.0 mm 0.00 in0.0 mm
09:00 AM 72.5°F22.5°C 72.2°F22.3°C 99% Calm Calm 3.8 mph6.1 kmh 29.17 in987.8 mb 0.00 in0.0 mm 0.00 in0.0 mm 0.00 in0.0 mm
08:55 AM 71.4°F21.9°C 71.2°F21.8°C 99% 2.2 mph E3.5 kmh E 3.8 mph6.1 kmh 29.18 in988.1 mb 0.00 in0.0 mm 0.00 in0.0 mm 0.00 in0.0 mm
08:50 AM 71.8°F22.1°C 71.5°F21.9°C 99% 1.6 mph E2.6 kmh E 3.1 mph5.0 kmh 29.17 in987.8 mb 0.00 in0.0 mm 0.00 in0.0 mm 0.00 in0.0 mm
08:45 AM 72.0°F22.2°C 71.7°F22.1°C 99% Calm Calm 3.1 mph5.0 kmh 29.17 in987.8 mb 0.00 in0.0 mm 0.00 in0.0 mm 0.00 in0.0 mm
08:40 AM 71.2°F21.8°C 71.0°F21.7°C 99% 0.7 mph E1.1 kmh E 3.1 mph5.0 kmh 29.17 in987.8 mb 0.00 in0.0 mm 0.00 in0.0 mm 0.00 in0.0 mm
08:35 AM 70.5°F21.4°C 70.3°F21.3°C 99% Calm Calm 2.2 mph3.5 kmh 29.17 in987.8 mb 0.00 in0.0 mm 0.00 in0.0 mm 0.00 in0.0 mm
08:30 AM 70.7°F21.5°C 70.4°F21.3°C 99% Calm Calm 1.6 mph2.6 kmh 29.16 in987.5 mb 0.00 in0.0 mm 0.00 in0.0 mm 0.00 in0.0 mm
08:25 AM 69.6°F20.9°C 69.4°F20.8°C 99% Calm Calm 0.7 mph1.1 kmh 29.17 in987.8 mb 0.00 in0.0 mm 0.00 in0.0 mm 0.00 in0.0 mm
08:20 AM 68.7°F20.4°C 68.5°F20.3°C 99% Calm Calm 0.7 mph1.1 kmh 29.17 in987.8 mb 0.00 in0.0 mm 0.00 in0.0 mm 0.00 in0.0 mm
08:15 AM 68.7°F20.4°C 68.5°F20.3°C 99% Calm Calm 0.7 mph1.1 kmh 29.17 in987.8 mb 0.00 in0.0 mm 0.00 in0.0 mm 0.00 in0.0 mm
08:10 AM 68.9°F20.5°C 68.6°F20.3°C 99% Calm Calm 2.2 mph3.5 kmh 29.16 in987.5 mb 0.00 in0.0 mm 0.00 in0.0 mm 0.00 in0.0 mm
08:05 AM 68.5°F20.3°C 68.3°F20.2°C 99% Calm Calm 2.2 mph3.5 kmh 29.16 in987.5 mb 0.00 in0.0 mm 0.00 in0.0 mm 0.00 in0.0 mm
08:00 AM 68.4°F20.2°C 68.1°F20.1°C 99% 1.6 mph E2.6 kmh E 2.2 mph3.5 kmh 29.17 in987.8 mb 0.00 in0.0 mm 0.00 in0.0 mm 0.00 in0.0 mm
07:55 AM 68.2°F20.1°C 67.9°F19.9°C 99% 1.6 mph E2.6 kmh E 3.1 mph5.0 kmh 29.16 in987.5 mb 0.00 in0.0 mm 0.00 in0.0 mm 0.00 in0.0 mm
07:50 AM 68.0°F20.0°C 67.7°F19.8°C 99% Calm Calm 3.1 mph5.0 kmh 29.16 in987.5 mb 0.00 in0.0 mm 0.00 in0.0 mm 0.00 in0.0 mm
07:45 AM 67.8°F19.9°C 67.6°F19.8°C 99% Calm Calm 3.1 mph5.0 kmh 29.17 in987.8 mb 0.00 in0.0 mm 0.00 in0.0 mm 0.00 in0.0 mm
07:40 AM 67.3°F19.6°C 67.0°F19.4°C 99% 0.7 mph E1.1 kmh E 3.1 mph5.0 kmh 29.17 in987.8 mb 0.00 in0.0 mm 0.00 in0.0 mm 0.00 in0.0 mm
07:35 AM 66.9°F19.4°C 66.7°F19.3°C 99% 0.7 mph E1.1 kmh E 3.1 mph5.0 kmh 29.17 in987.8 mb 0.00 in0.0 mm 0.00 in0.0 mm 0.00 in0.0 mm
07:30 AM 66.0°F18.9°C 65.8°F18.8°C 99% 0.7 mph E1.1 kmh E 3.1 mph5.0 kmh 29.17 in987.8 mb 0.00 in0.0 mm 0.00 in0.0 mm 0.00 in0.0 mm
07:25 AM 65.7°F18.7°C 65.4°F18.6°C 99% 1.6 mph E2.6 kmh E 2.2 mph3.5 kmh 29.17 in987.8 mb 0.00 in0.0 mm 0.00 in0.0 mm 0.00 in0.0 mm
07:20 AM 65.5°F18.6°C 65.2°F18.4°C 99% Calm Calm 2.2 mph3.5 kmh 29.17 in987.8 mb 0.00 in0.0 mm 0.00 in0.0 mm 0.00 in0.0 mm
07:15 AM 65.3°F18.5°C 65.0°F18.3°C 99% 0.7 mph E1.1 kmh E 1.6 mph2.6 kmh 29.17 in987.8 mb 0.00 in0.0 mm 0.00 in0.0 mm 0.00 in0.0 mm
07:10 AM 65.1°F18.4°C 64.9°F18.3°C 99% Calm Calm 1.6 mph2.6 kmh 29.17 in987.8 mb 0.00 in0.0 mm 0.00 in0.0 mm 0.00 in0.0 mm
07:05 AM 64.9°F18.3°C 64.7°F18.2°C 99% Calm Calm 3.1 mph5.0 kmh 29.16 in987.5 mb 0.00 in0.0 mm 0.00 in0.0 mm 0.00 in0.0 mm
07:00 AM 64.9°F18.3°C 64.7°F18.2°C 99% Calm Calm 3.1 mph5.0 kmh 29.17 in987.8 mb 0.00 in0.0 mm 0.00 in0.0 mm 0.00 in0.0 mm
06:55 AM 64.8°F18.2°C 64.5°F18.1°C 99% 0.7 mph E1.1 kmh E 3.1 mph5.0 kmh 29.16 in987.5 mb 0.00 in0.0 mm 0.00 in0.0 mm 0.00 in0.0 mm
06:50 AM 64.9°F18.3°C 64.7°F18.2°C 99% 1.6 mph E2.6 kmh E 3.1 mph5.0 kmh 29.17 in987.8 mb 0.00 in0.0 mm 0.00 in0.0 mm 0.00 in0.0 mm
06:45 AM 64.9°F18.3°C 64.7°F18.2°C 99% Calm Calm 2.2 mph3.5 kmh 29.16 in987.5 mb 0.00 in0.0 mm 0.00 in0.0 mm 0.00 in0.0 mm
06:40 AM 64.9°F18.3°C 64.7°F18.2°C 99% Calm Calm 2.2 mph3.5 kmh 29.17 in987.8 mb 0.00 in0.0 mm 0.00 in0.0 mm 0.00 in0.0 mm
06:35 AM 64.9°F18.3°C 64.7°F18.2°C 99% 0.7 mph E1.1 kmh E 1.6 mph2.6 kmh 29.17 in987.8 mb 0.00 in0.0 mm 0.00 in0.0 mm 0.00 in0.0 mm
06:30 AM 65.1°F18.4°C 64.9°F18.3°C 99% Calm Calm 1.6 mph2.6 kmh 29.16 in987.5 mb 0.00 in0.0 mm 0.00 in0.0 mm 0.00 in0.0 mm
06:25 AM 65.1°F18.4°C 64.9°F18.3°C 99% Calm Calm 1.6 mph2.6 kmh 29.16 in987.5 mb 0.00 in0.0 mm 0.00 in0.0 mm 0.00 in0.0 mm
06:20 AM 65.3°F18.5°C 65.0°F18.3°C 99% 0.7 mph E1.1 kmh E 1.6 mph2.6 kmh 29.16 in987.5 mb 0.00 in0.0 mm 0.00 in0.0 mm 0.00 in0.0 mm
06:15 AM 65.3°F18.5°C 65.0°F18.3°C 99% Calm Calm 2.2 mph3.5 kmh 29.16 in987.5 mb 0.00 in0.0 mm 0.00 in0.0 mm 0.00 in0.0 mm
06:10 AM 65.3°F18.5°C 65.0°F18.3°C 99% 0.7 mph E1.1 kmh E 2.2 mph3.5 kmh 29.16 in987.5 mb 0.00 in0.0 mm 0.00 in0.0 mm 0.00 in0.0 mm
06:05 AM 65.3°F18.5°C 65.0°F18.3°C 99% Calm Calm 1.6 mph2.6 kmh 29.16 in987.5 mb 0.00 in0.0 mm 0.00 in0.0 mm 0.00 in0.0 mm
06:00 AM 65.5°F18.6°C 65.2°F18.4°C 99% Calm Calm -- 29.15 in987.1 mb 0.00 in0.0 mm 0.00 in0.0 mm 0.00 in0.0 mm
05:55 AM 65.5°F18.6°C 65.2°F18.4°C 99% Calm Calm 0.7 mph1.1 kmh 29.15 in987.1 mb 0.00 in0.0 mm 0.00 in0.0 mm 0.00 in0.0 mm
05:50 AM 65.5°F18.6°C 65.2°F18.4°C 99% Calm Calm 0.7 mph1.1 kmh 29.14 in986.8 mb 0.00 in0.0 mm 0.00 in0.0 mm 0.00 in0.0 mm
05:45 AM 65.5°F18.6°C 65.2°F18.4°C 99% Calm Calm 0.7 mph1.1 kmh 29.14 in986.8 mb 0.00 in0.0 mm 0.00 in0.0 mm 0.00 in0.0 mm
05:40 AM 65.5°F18.6°C 65.2°F18.4°C 99% Calm Calm 0.7 mph1.1 kmh 29.15 in987.1 mb 0.00 in0.0 mm 0.00 in0.0 mm 0.00 in0.0 mm
05:35 AM 65.7°F18.7°C 65.4°F18.6°C 99% Calm Calm 0.7 mph1.1 kmh 29.15 in987.1 mb 0.00 in0.0 mm 0.00 in0.0 mm 0.00 in0.0 mm
05:30 AM 65.7°F18.7°C 65.4°F18.6°C 99% Calm Calm 0.7 mph1.1 kmh 29.15 in987.1 mb 0.00 in0.0 mm 0.00 in0.0 mm 0.00 in0.0 mm
05:25 AM 65.7°F18.7°C 65.4°F18.6°C 99% Calm Calm 2.2 mph3.5 kmh 29.14 in986.8 mb 0.00 in0.0 mm 0.00 in0.0 mm 0.00 in0.0 mm
05:20 AM 65.8°F18.8°C 65.6°F18.7°C 99% Calm Calm 2.2 mph3.5 kmh 29.15 in987.1 mb 0.00 in0.0 mm 0.00 in0.0 mm 0.00 in0.0 mm
05:15 AM 66.0°F18.9°C 65.8°F18.8°C 99% 0.7 mph E1.1 kmh E 1.6 mph2.6 kmh 29.15 in987.1 mb 0.00 in0.0 mm 0.00 in0.0 mm 0.00 in0.0 mm
05:10 AM 66.2°F19.0°C 65.9°F18.8°C 99% Calm Calm 1.6 mph2.6 kmh 29.15 in987.1 mb 0.00 in0.0 mm 0.00 in0.0 mm 0.00 in0.0 mm
05:05 AM 66.2°F19.0°C 65.9°F18.8°C 99% 0.7 mph E1.1 kmh E 1.6 mph2.6 kmh 29.15 in987.1 mb 0.00 in0.0 mm 0.00 in0.0 mm 0.00 in0.0 mm
05:00 AM 66.4°F19.1°C 66.1°F18.9°C 99% Calm Calm 0.7 mph1.1 kmh 29.14 in986.8 mb 0.00 in0.0 mm 0.00 in0.0 mm 0.00 in0.0 mm
04:55 AM 66.4°F19.1°C 66.1°F18.9°C 99% Calm Calm 0.7 mph1.1 kmh 29.14 in986.8 mb 0.00 in0.0 mm 0.00 in0.0 mm 0.00 in0.0 mm
04:50 AM 66.6°F19.2°C 66.3°F19.1°C 99% Calm Calm 0.7 mph1.1 kmh 29.15 in987.1 mb 0.00 in0.0 mm 0.00 in0.0 mm 0.00 in0.0 mm
04:45 AM 66.6°F19.2°C 66.3°F19.1°C 99% Calm Calm 0.7 mph1.1 kmh 29.14 in986.8 mb 0.00 in0.0 mm 0.00 in0.0 mm 0.00 in0.0 mm
04:40 AM 66.6°F19.2°C 66.3°F19.1°C 99% Calm Calm 1.6 mph2.6 kmh 29.14 in986.8 mb 0.00 in0.0 mm 0.00 in0.0 mm 0.00 in0.0 mm
04:35 AM 66.6°F19.2°C 66.3°F19.1°C 99% Calm Calm 1.6 mph2.6 kmh 29.15 in987.1 mb 0.00 in0.0 mm 0.00 in0.0 mm 0.00 in0.0 mm
04:30 AM 66.6°F19.2°C 66.3°F19.1°C 99% Calm Calm 1.6 mph2.6 kmh 29.15 in987.1 mb 0.00 in0.0 mm 0.00 in0.0 mm 0.00 in0.0 mm
04:25 AM 66.6°F19.2°C 66.3°F19.1°C 99% Calm Calm 1.6 mph2.6 kmh 29.14 in986.8 mb 0.00 in0.0 mm 0.00 in0.0 mm 0.00 in0.0 mm
04:20 AM 66.6°F19.2°C 66.3°F19.1°C 99% Calm Calm 3.1 mph5.0 kmh 29.14 in986.8 mb 0.00 in0.0 mm 0.00 in0.0 mm 0.00 in0.0 mm
04:15 AM 66.6°F19.2°C 66.3°F19.1°C 99% Calm Calm 3.1 mph5.0 kmh 29.14 in986.8 mb 0.00 in0.0 mm 0.00 in0.0 mm 0.00 in0.0 mm
04:10 AM 66.7°F19.3°C 66.5°F19.2°C 99% Calm Calm 1.6 mph2.6 kmh 29.14 in986.8 mb 0.00 in0.0 mm 0.00 in0.0 mm 0.00 in0.0 mm
04:05 AM 66.9°F19.4°C 66.7°F19.3°C 99% Calm Calm 1.6 mph2.6 kmh 29.14 in986.8 mb 0.00 in0.0 mm 0.00 in0.0 mm 0.00 in0.0 mm
04:00 AM 66.9°F19.4°C 66.7°F19.3°C 99% 0.7 mph E1.1 kmh E 1.6 mph2.6 kmh 29.14 in986.8 mb 0.00 in0.0 mm 0.00 in0.0 mm 0.00 in0.0 mm
03:55 AM 66.9°F19.4°C 66.7°F19.3°C 99% Calm Calm 2.2 mph3.5 kmh 29.14 in986.8 mb 0.00 in0.0 mm 0.00 in0.0 mm 0.00 in0.0 mm
03:50 AM 66.9°F19.4°C 66.7°F19.3°C 99% 0.7 mph E1.1 kmh E 2.2 mph3.5 kmh 29.15 in987.1 mb 0.00 in0.0 mm 0.00 in0.0 mm 0.00 in0.0 mm
03:45 AM 67.1°F19.5°C 66.8°F19.3°C 99% 1.6 mph E2.6 kmh E 2.2 mph3.5 kmh 29.15 in987.1 mb 0.00 in0.0 mm 0.00 in0.0 mm 0.00 in0.0 mm
03:40 AM 67.1°F19.5°C 66.8°F19.3°C 99% Calm Calm 1.6 mph2.6 kmh 29.15 in987.1 mb 0.00 in0.0 mm 0.00 in0.0 mm 0.00 in0.0 mm
03:35 AM 67.1°F19.5°C 66.8°F19.3°C 99% Calm Calm 3.1 mph5.0 kmh 29.15 in987.1 mb 0.00 in0.0 mm 0.00 in0.0 mm 0.00 in0.0 mm
03:30 AM 67.1°F19.5°C 66.8°F19.3°C 99% Calm Calm 3.8 mph6.1 kmh 29.15 in987.1 mb 0.00 in0.0 mm 0.00 in0.0 mm 0.00 in0.0 mm
03:25 AM 67.1°F19.5°C 66.8°F19.3°C 99% 1.6 mph E2.6 kmh E 3.8 mph6.1 kmh 29.15 in987.1 mb 0.00 in0.0 mm 0.00 in0.0 mm 0.00 in0.0 mm
03:20 AM 67.1°F19.5°C 66.8°F19.3°C 99% 0.7 mph E1.1 kmh E 2.2 mph3.5 kmh 29.15 in987.1 mb 0.00 in0.0 mm 0.00 in0.0 mm 0.00 in0.0 mm
03:15 AM 67.1°F19.5°C 66.8°F19.3°C 99% Calm Calm 3.1 mph5.0 kmh 29.16 in987.5 mb 0.00 in0.0 mm 0.00 in0.0 mm 0.00 in0.0 mm
03:10 AM 67.1°F19.5°C 66.8°F19.3°C 99% 0.7 mph E1.1 kmh E 3.1 mph5.0 kmh 29.15 in987.1 mb 0.00 in0.0 mm 0.00 in0.0 mm 0.00 in0.0 mm
03:05 AM 67.1°F19.5°C 66.8°F19.3°C 99% 1.6 mph E2.6 kmh E 3.1 mph5.0 kmh 29.16 in987.5 mb 0.00 in0.0 mm 0.00 in0.0 mm 0.00 in0.0 mm
03:00 AM 67.1°F19.5°C 66.8°F19.3°C 99% 0.7 mph E1.1 kmh E 2.2 mph3.5 kmh 29.15 in987.1 mb 0.00 in0.0 mm 0.00 in0.0 mm 0.00 in0.0 mm
02:55 AM 67.1°F19.5°C 66.8°F19.3°C 99% Calm Calm 1.6 mph2.6 kmh 29.16 in987.5 mb 0.00 in0.0 mm 0.00 in0.0 mm 0.00 in0.0 mm
02:50 AM 67.1°F19.5°C 66.8°F19.3°C 99% Calm Calm 2.2 mph3.5 kmh 29.16 in987.5 mb 0.00 in0.0 mm 0.00 in0.0 mm 0.00 in0.0 mm
02:45 AM 67.1°F19.5°C 66.8°F19.3°C 99% Calm Calm 2.2 mph3.5 kmh 29.16 in987.5 mb 0.00 in0.0 mm 0.00 in0.0 mm 0.00 in0.0 mm
02:40 AM 67.3°F19.6°C 67.0°F19.4°C 99% 0.7 mph E1.1 kmh E 2.2 mph3.5 kmh 29.16 in987.5 mb 0.00 in0.0 mm 0.00 in0.0 mm 0.00 in0.0 mm
02:35 AM 67.3°F19.6°C 67.0°F19.4°C 99% Calm Calm 0.7 mph1.1 kmh 29.16 in987.5 mb 0.00 in0.0 mm 0.00 in0.0 mm 0.00 in0.0 mm
02:30 AM 67.3°F19.6°C 67.0°F19.4°C 99% Calm Calm 0.7 mph1.1 kmh 29.15 in987.1 mb 0.00 in0.0 mm 0.00 in0.0 mm 0.00 in0.0 mm
02:25 AM 67.3°F19.6°C 67.0°F19.4°C 99% Calm Calm 0.7 mph1.1 kmh 29.16 in987.5 mb 0.00 in0.0 mm 0.00 in0.0 mm 0.00 in0.0 mm
02:20 AM 67.3°F19.6°C 67.0°F19.4°C 99% Calm Calm 0.7 mph1.1 kmh 29.16 in987.5 mb 0.00 in0.0 mm 0.00 in0.0 mm 0.00 in0.0 mm
02:15 AM 67.1°F19.5°C 66.8°F19.3°C 99% Calm Calm 0.7 mph1.1 kmh 29.16 in987.5 mb 0.00 in0.0 mm 0.00 in0.0 mm 0.00 in0.0 mm
02:10 AM 67.1°F19.5°C 66.8°F19.3°C 99% Calm Calm 0.7 mph1.1 kmh 29.15 in987.1 mb 0.00 in0.0 mm 0.00 in0.0 mm 0.00 in0.0 mm
02:05 AM 67.1°F19.5°C 66.8°F19.3°C 99% Calm Calm 0.7 mph1.1 kmh 29.16 in987.5 mb 0.00 in0.0 mm 0.00 in0.0 mm 0.00 in0.0 mm
02:00 AM 67.1°F19.5°C 66.8°F19.3°C 99% Calm Calm 1.6 mph2.6 kmh 29.16 in987.5 mb 0.00 in0.0 mm 0.00 in0.0 mm 0.00 in0.0 mm
01:55 AM 67.1°F19.5°C 66.8°F19.3°C 99% Calm Calm 1.6 mph2.6 kmh 29.16 in987.5 mb 0.00 in0.0 mm 0.00 in0.0 mm 0.00 in0.0 mm
01:50 AM 67.3°F19.6°C 67.0°F19.4°C 99% Calm Calm 1.6 mph2.6 kmh 29.16 in987.5 mb 0.00 in0.0 mm 0.00 in0.0 mm 0.00 in0.0 mm
01:45 AM 67.3°F19.6°C 67.0°F19.4°C 99% Calm Calm 0.7 mph1.1 kmh 29.16 in987.5 mb 0.00 in0.0 mm 0.00 in0.0 mm 0.00 in0.0 mm
01:40 AM 67.3°F19.6°C 67.0°F19.4°C 99% Calm Calm 0.7 mph1.1 kmh 29.16 in987.5 mb 0.00 in0.0 mm 0.00 in0.0 mm 0.00 in0.0 mm
01:35 AM 67.3°F19.6°C 67.0°F19.4°C 99% Calm Calm 0.7 mph1.1 kmh 29.16 in987.5 mb 0.00 in0.0 mm 0.00 in0.0 mm 0.00 in0.0 mm
01:30 AM 67.1°F19.5°C 66.8°F19.3°C 99% Calm Calm 0.7 mph1.1 kmh 29.17 in987.8 mb 0.00 in0.0 mm 0.00 in0.0 mm 0.00 in0.0 mm
01:25 AM 67.3°F19.6°C 67.0°F19.4°C 99% Calm Calm -- 29.16 in987.5 mb 0.00 in0.0 mm 0.00 in0.0 mm 0.00 in0.0 mm
01:20 AM 67.3°F19.6°C 67.0°F19.4°C 99% Calm Calm 0.7 mph1.1 kmh 29.17 in987.8 mb 0.00 in0.0 mm 0.00 in0.0 mm 0.00 in0.0 mm
01:15 AM 67.5°F19.7°C 67.2°F19.6°C 99% Calm Calm 0.7 mph1.1 kmh 29.17 in987.8 mb 0.00 in0.0 mm 0.00 in0.0 mm 0.00 in0.0 mm
01:10 AM 67.6°F19.8°C 67.4°F19.7°C 99% Calm Calm 2.2 mph3.5 kmh 29.17 in987.8 mb 0.00 in0.0 mm 0.00 in0.0 mm 0.00 in0.0 mm
01:05 AM 67.8°F19.9°C 67.6°F19.8°C 99% Calm Calm 2.2 mph3.5 kmh 29.17 in987.8 mb 0.00 in0.0 mm 0.00 in0.0 mm 0.00 in0.0 mm
01:00 AM 68.0°F20.0°C 67.7°F19.8°C 99% 0.7 mph E1.1 kmh E 3.8 mph6.1 kmh 29.17 in987.8 mb 0.00 in0.0 mm 0.00 in0.0 mm 0.00 in0.0 mm
12:55 AM 68.0°F20.0°C 67.7°F19.8°C 99% Calm Calm 3.8 mph6.1 kmh 29.16 in987.5 mb 0.00 in0.0 mm 0.00 in0.0 mm 0.00 in0.0 mm
12:50 AM 68.0°F20.0°C 67.7°F19.8°C 99% Calm Calm 2.2 mph3.5 kmh 29.17 in987.8 mb 0.00 in0.0 mm 0.00 in0.0 mm 0.00 in0.0 mm
12:45 AM 68.0°F20.0°C 67.7°F19.8°C 99% Calm Calm 2.2 mph3.5 kmh 29.17 in987.8 mb 0.00 in0.0 mm 0.00 in0.0 mm 0.00 in0.0 mm
12:40 AM 68.0°F20.0°C 67.7°F19.8°C 99% 1.6 mph E2.6 kmh E 2.2 mph3.5 kmh 29.17 in987.8 mb 0.00 in0.0 mm 0.00 in0.0 mm 0.00 in0.0 mm
12:35 AM 68.2°F20.1°C 67.9°F19.9°C 99% 0.7 mph E1.1 kmh E 2.2 mph3.5 kmh 29.17 in987.8 mb 0.00 in0.0 mm 0.00 in0.0 mm 0.00 in0.0 mm
12:30 AM 68.2°F20.1°C 67.9°F19.9°C 99% Calm Calm 0.7 mph1.1 kmh 29.17 in987.8 mb 0.00 in0.0 mm 0.00 in0.0 mm 0.00 in0.0 mm
12:25 AM 68.2°F20.1°C 67.9°F19.9°C 99% Calm Calm 0.7 mph1.1 kmh 29.17 in987.8 mb 0.00 in0.0 mm 0.00 in0.0 mm 0.00 in0.0 mm
12:20 AM 68.2°F20.1°C 67.9°F19.9°C 99% Calm Calm 0.7 mph1.1 kmh 29.18 in988.1 mb 0.00 in0.0 mm 0.00 in0.0 mm 0.00 in0.0 mm
12:15 AM 68.4°F20.2°C 68.1°F20.1°C 99% Calm Calm 0.7 mph1.1 kmh 29.18 in988.1 mb 0.00 in0.0 mm 0.00 in0.0 mm 0.00 in0.0 mm
12:10 AM 68.4°F20.2°C 68.1°F20.1°C 99% Calm Calm 0.7 mph1.1 kmh 29.17 in987.8 mb 0.00 in0.0 mm 0.00 in0.0 mm 0.00 in0.0 mm
12:05 AM 68.4°F20.2°C 68.1°F20.1°C 99% Calm Calm -- 29.18 in988.1 mb 0.00 in0.0 mm 0.00 in0.0 mm 0.00 in0.0 mm
12:00 AM 68.4°F20.2°C 68.1°F20.1°C 99% Calm Calm 1.6 mph2.6 kmh 29.18 in988.1 mb 0.00 in0.0 mm 0.00 in0.0 mm 0.00 in0.0 mm